createdAt,value
2022-08-05T00:02:21.311Z,19.60
2022-08-05T00:04:55.187Z,19.60
2022-08-05T00:07:59.068Z,19.60
2022-08-05T00:10:10.367Z,19.60
2022-08-05T00:12:55.735Z,19.50
2022-08-05T00:15:55.519Z,19.50
2022-08-05T00:18:21.679Z,19.50
2022-08-05T00:20:50.220Z,19.50
2022-08-05T00:23:17.294Z,19.50
2022-08-05T00:26:03.947Z,19.50
2022-08-05T00:28:30.735Z,19.50
2022-08-05T00:31:02.766Z,19.50
2022-08-05T00:34:55.635Z,19.50
2022-08-05T00:37:10.448Z,19.40
2022-08-05T00:39:05.561Z,19.50
2022-08-05T00:41:51.763Z,19.50
2022-08-05T00:44:23.160Z,19.40
2022-08-05T00:46:54.172Z,19.40
2022-08-05T00:49:32.522Z,19.40
2022-08-05T00:52:00.071Z,19.40
2022-08-05T00:54:28.114Z,19.30
2022-08-05T00:56:57.161Z,19.30
2022-08-05T00:59:23.858Z,19.30
2022-08-05T01:01:51.120Z,19.30
2022-08-05T01:04:20.197Z,19.20
2022-08-05T01:06:53.676Z,19.20
2022-08-05T01:09:21.938Z,19.20
2022-08-05T01:11:50.424Z,19.20
2022-08-05T01:14:27.833Z,19.10
2022-08-05T01:17:13.972Z,19.10
2022-08-05T01:20:03.743Z,19.10
2022-08-05T01:22:57.206Z,19.10
2022-08-05T01:25:40.866Z,19.10
2022-08-05T01:28:21.902Z,19.00
2022-08-05T01:30:55.352Z,19.00
2022-08-05T01:33:24.432Z,19.00
2022-08-05T01:35:53.867Z,19.00
2022-08-05T01:38:27.621Z,19.00
2022-08-05T01:41:00.006Z,19.10
2022-08-05T01:43:29.876Z,19.00
2022-08-05T01:45:57.684Z,19.00
2022-08-05T01:48:28.553Z,19.00
2022-08-05T01:50:56.002Z,19.00
2022-08-05T01:53:54.557Z,18.90
2022-08-05T01:56:11.196Z,18.90
2022-08-05T01:58:40.870Z,18.70
2022-08-05T02:01:13.176Z,18.80
2022-08-05T02:03:43.863Z,18.70
2022-08-05T02:06:33.687Z,18.70
2022-08-05T02:08:59.107Z,18.70
2022-08-05T02:11:33.146Z,18.50
2022-08-05T02:14:12.652Z,18.70
2022-08-05T02:16:44.192Z,18.60
2022-08-05T02:19:10.863Z,18.50
2022-08-05T02:21:43.432Z,18.70
2022-08-05T02:24:17.831Z,18.60
2022-08-05T02:26:54.899Z,18.60
2022-08-05T02:29:26.078Z,18.50
2022-08-05T02:32:11.439Z,18.50
2022-08-05T02:34:38.401Z,18.40
2022-08-05T02:37:09.107Z,18.50
2022-08-05T02:39:37.218Z,18.50
2022-08-05T02:42:09.119Z,18.40
2022-08-05T02:44:37.545Z,18.40
2022-08-05T02:47:05.634Z,18.40
2022-08-05T02:49:36.354Z,18.40
2022-08-05T02:52:30.220Z,18.40
2022-08-05T02:54:58.619Z,18.40
2022-08-05T02:58:09.940Z,18.40
2022-08-05T03:00:16.910Z,18.40
2022-08-05T03:02:44.674Z,18.40
2022-08-05T03:05:12.314Z,18.40
2022-08-05T03:08:06.796Z,18.30
2022-08-05T03:10:27.814Z,18.40
2022-08-05T03:12:54.564Z,18.40
2022-08-05T03:15:24.829Z,18.30
2022-08-05T03:17:55.754Z,18.30
2022-08-05T03:20:24.258Z,18.30
2022-08-05T03:22:51.651Z,18.20
2022-08-05T03:25:33.821Z,18.10
2022-08-05T03:28:08.298Z,18.10
2022-08-05T03:30:35.831Z,18.00
2022-08-05T03:33:04.178Z,17.90
2022-08-05T03:35:33.688Z,17.90
2022-08-05T03:38:01.011Z,17.90
2022-08-05T03:40:32.328Z,18.10
2022-08-05T03:43:15.824Z,17.90
2022-08-05T03:45:57.304Z,18.00
2022-08-05T03:48:24.200Z,18.00
2022-08-05T03:52:36.958Z,17.90
2022-08-05T03:56:05.120Z,17.90
2022-08-05T03:56:41.374Z,17.90
2022-08-05T03:59:10.141Z,17.80
2022-08-05T04:01:37.942Z,17.80
2022-08-05T04:04:09.808Z,18.00
2022-08-05T04:06:37.844Z,17.80
2022-08-05T04:09:06.077Z,17.90
2022-08-05T04:11:50.763Z,17.90
2022-08-05T04:14:19.437Z,17.80
2022-08-05T04:16:57.769Z,17.90
2022-08-05T04:19:24.908Z,18.00
2022-08-05T04:22:08.391Z,18.00
2022-08-05T04:24:38.918Z,18.10
2022-08-05T04:27:11.984Z,18.10
2022-08-05T04:29:38.979Z,18.10
2022-08-05T04:32:06.216Z,18.10
2022-08-05T04:34:35.938Z,18.20
2022-08-05T04:37:05.757Z,18.30
2022-08-05T04:39:33.535Z,18.40
2022-08-05T04:42:02.227Z,18.60
2022-08-05T04:44:30.792Z,18.60
2022-08-05T04:47:09.138Z,18.60
2022-08-05T04:49:38.991Z,18.80
2022-08-05T04:52:23.774Z,18.70
2022-08-05T04:54:54.259Z,19.00
2022-08-05T04:57:28.597Z,19.00
2022-08-05T04:59:56.595Z,19.10
2022-08-05T05:02:41.589Z,19.20
2022-08-05T05:05:26.768Z,19.40
2022-08-05T05:08:01.477Z,19.40
2022-08-05T05:10:29.752Z,19.60
2022-08-05T05:12:56.683Z,19.70
2022-08-05T05:15:57.154Z,20.00
2022-08-05T05:18:28.409Z,20.30
2022-08-05T05:21:00.478Z,20.50
2022-08-05T05:23:38.783Z,20.60
2022-08-05T05:26:13.967Z,20.70
2022-08-05T05:28:42.780Z,20.80
2022-08-05T05:31:11.592Z,20.80
2022-08-05T05:33:58.911Z,20.80
2022-08-05T05:36:25.042Z,20.80
2022-08-05T05:38:55.732Z,20.80
2022-08-05T05:41:22.518Z,20.80
2022-08-05T05:43:56.979Z,20.70
2022-08-05T05:46:24.466Z,20.80
2022-08-05T05:48:51.710Z,20.80
2022-08-05T05:51:23.392Z,20.90
2022-08-05T05:53:57.226Z,20.90
2022-08-05T05:56:32.845Z,21.00
2022-08-05T05:59:03.558Z,21.00
2022-08-05T06:01:33.364Z,21.00
2022-08-05T06:04:05.561Z,20.90
2022-08-05T06:06:33.217Z,20.90
2022-08-05T06:09:01.988Z,20.70
2022-08-05T06:11:31.142Z,20.80
2022-08-05T06:13:57.996Z,20.80
2022-08-05T06:16:32.782Z,20.80
2022-08-05T06:19:06.008Z,20.70
2022-08-05T06:21:36.992Z,20.70
2022-08-05T06:24:05.868Z,20.70
2022-08-05T06:26:33.950Z,20.80
2022-08-05T06:29:06.983Z,20.90
2022-08-05T06:31:48.677Z,20.90
2022-08-05T06:34:19.834Z,20.90
2022-08-05T06:36:58.145Z,20.90
2022-08-05T06:39:27.209Z,20.90
2022-08-05T06:41:57.316Z,21.00
2022-08-05T06:44:24.094Z,21.10
2022-08-05T06:46:52.791Z,21.30
2022-08-05T06:49:21.538Z,21.30
2022-08-05T06:52:08.202Z,21.50
2022-08-05T06:54:54.883Z,21.70
2022-08-05T06:58:03.916Z,21.80
2022-08-05T07:00:09.830Z,22.00
2022-08-05T07:02:46.202Z,22.10
2022-08-05T07:05:18.499Z,22.20
2022-08-05T07:07:48.882Z,22.30
2022-08-05T07:10:16.470Z,22.40
2022-08-05T07:13:02.636Z,22.60
2022-08-05T07:16:01.855Z,22.60
2022-08-05T07:18:31.834Z,22.50
2022-08-05T07:21:04.745Z,22.40
2022-08-05T07:23:32.610Z,22.40
2022-08-05T07:25:59.375Z,22.30
2022-08-05T07:28:26.344Z,22.40
2022-08-05T07:30:55.079Z,22.40
2022-08-05T07:33:36.777Z,22.40
2022-08-05T07:36:21.182Z,22.50
2022-08-05T07:38:48.949Z,22.40
2022-08-05T07:42:09.359Z,22.40
2022-08-05T07:44:05.925Z,22.40
2022-08-05T07:46:41.400Z,22.40
2022-08-05T07:49:15.174Z,22.40
2022-08-05T07:51:53.536Z,22.50
2022-08-05T07:54:30.582Z,22.60
2022-08-05T07:57:22.390Z,22.60
2022-08-05T07:59:49.013Z,22.60
2022-08-05T08:02:17.678Z,22.50
2022-08-05T08:04:46.055Z,22.40
2022-08-05T08:07:13.518Z,22.50
2022-08-05T08:09:40.332Z,22.40
2022-08-05T08:12:19.927Z,22.30
2022-08-05T08:14:53.946Z,22.40
2022-08-05T08:17:21.475Z,22.30
2022-08-05T08:20:23.031Z,22.50
2022-08-05T08:22:35.362Z,22.60
2022-08-05T08:25:03.543Z,22.70
2022-08-05T08:27:40.223Z,22.60
2022-08-05T08:30:29.382Z,22.70
2022-08-05T08:33:04.427Z,22.80
2022-08-05T08:35:40.976Z,23.00
2022-08-05T08:38:07.862Z,23.10
2022-08-05T08:40:35.415Z,23.20
2022-08-05T08:44:56.440Z,23.30
2022-08-05T08:45:52.846Z,23.30
2022-08-05T08:48:36.086Z,23.40
2022-08-05T08:52:01.711Z,23.50
2022-08-05T08:53:54.013Z,23.50
2022-08-05T08:56:22.202Z,23.40
2022-08-05T08:58:49.593Z,23.50
2022-08-05T09:01:18.803Z,23.50
2022-08-05T09:03:47.636Z,23.60
2022-08-05T09:06:18.607Z,23.60
2022-08-05T09:08:47.000Z,23.60
2022-08-05T09:11:15.237Z,23.60
2022-08-05T09:14:01.151Z,23.70
2022-08-05T09:16:29.915Z,23.60
2022-08-05T09:18:59.442Z,23.60
2022-08-05T09:22:22.719Z,23.60
2022-08-05T09:24:15.668Z,23.60
2022-08-05T09:26:46.224Z,23.70
2022-08-05T09:29:18.408Z,23.60
2022-08-05T09:32:51.103Z,23.60
2022-08-05T09:34:52.574Z,23.60
2022-08-05T09:38:12.454Z,23.50
2022-08-05T09:40:07.820Z,23.50
2022-08-05T09:42:43.304Z,23.50
2022-08-05T09:46:04.696Z,23.60
2022-08-05T09:48:18.616Z,23.70
2022-08-05T09:50:51.963Z,23.70
2022-08-05T09:53:25.953Z,23.80
2022-08-05T09:56:12.982Z,23.80
2022-08-05T09:58:42.093Z,23.90
2022-08-05T10:01:15.364Z,23.90
2022-08-05T10:04:00.369Z,24.00
2022-08-05T10:06:30.930Z,24.10
2022-08-05T10:09:27.361Z,24.30
2022-08-05T10:12:30.306Z,24.60
2022-08-05T10:14:54.785Z,24.90
2022-08-05T10:17:39.234Z,25.20
2022-08-05T10:20:10.895Z,25.40
2022-08-05T10:22:42.842Z,25.60
2022-08-05T10:25:15.763Z,25.70
2022-08-05T10:28:13.704Z,25.80
2022-08-05T10:31:20.710Z,25.70
2022-08-05T10:33:17.201Z,25.60
2022-08-05T10:35:48.621Z,25.60
2022-08-05T10:38:27.498Z,25.60
2022-08-05T10:41:12.397Z,25.60
2022-08-05T10:43:48.863Z,25.60
2022-08-05T10:46:16.725Z,25.70
2022-08-05T10:48:57.464Z,25.70
2022-08-05T10:51:29.404Z,25.80
2022-08-05T10:53:58.247Z,25.90
2022-08-05T10:56:29.087Z,26.00
2022-08-05T10:59:12.759Z,26.00
2022-08-05T11:01:55.046Z,26.10
2022-08-05T11:04:31.696Z,26.10
2022-08-05T11:07:00.613Z,26.10
2022-08-05T11:09:39.369Z,26.30
2022-08-05T11:12:24.666Z,26.50
2022-08-05T11:15:19.150Z,26.80
2022-08-05T11:18:07.547Z,26.80
2022-08-05T11:20:45.164Z,27.00
2022-08-05T11:23:33.167Z,27.00
2022-08-05T11:26:08.777Z,26.90
2022-08-05T11:28:36.169Z,27.00
2022-08-05T11:31:07.628Z,27.00
2022-08-05T11:33:58.591Z,27.00
2022-08-05T11:36:47.079Z,27.10
2022-08-05T11:39:47.981Z,27.20
2022-08-05T11:42:18.418Z,27.40
2022-08-05T11:44:53.649Z,27.50
2022-08-05T11:47:48.305Z,27.50
2022-08-05T11:50:08.671Z,27.70
2022-08-05T11:52:35.433Z,27.70
2022-08-05T11:55:07.170Z,27.70
2022-08-05T11:58:08.290Z,27.90
2022-08-05T12:00:28.870Z,27.90
2022-08-05T12:02:56.580Z,28.00
2022-08-05T12:05:36.418Z,28.00
2022-08-05T12:08:10.062Z,28.10
2022-08-05T12:10:45.326Z,28.10
2022-08-05T12:13:47.445Z,28.10
2022-08-05T12:16:04.911Z,28.00
2022-08-05T12:18:42.676Z,27.90
2022-08-05T12:21:17.938Z,27.90
2022-08-05T12:24:04.810Z,28.00
2022-08-05T12:26:37.801Z,28.10
2022-08-05T12:29:09.627Z,28.30
2022-08-05T12:31:46.160Z,28.30
2022-08-05T12:34:21.381Z,28.20
2022-08-05T12:36:52.244Z,28.30
2022-08-05T12:39:19.275Z,28.40
2022-08-05T12:41:46.133Z,28.30
2022-08-05T12:44:14.298Z,28.10
2022-08-05T12:46:45.594Z,28.10
2022-08-05T12:49:14.608Z,28.20
2022-08-05T12:52:10.178Z,28.30
2022-08-05T12:54:40.270Z,28.30
2022-08-05T12:57:09.728Z,28.30
2022-08-05T13:00:08.741Z,28.40
2022-08-05T13:02:31.324Z,28.50
2022-08-05T13:04:58.757Z,28.60
2022-08-05T13:07:57.536Z,28.60
2022-08-05T13:10:13.978Z,28.50
2022-08-05T13:12:51.115Z,28.40
2022-08-05T13:15:41.241Z,28.40
2022-08-05T13:18:08.526Z,28.30
2022-08-05T13:20:35.448Z,28.40
2022-08-05T13:23:07.586Z,28.30
2022-08-05T13:25:51.946Z,28.30
2022-08-05T13:28:22.292Z,28.10
2022-08-05T13:30:51.156Z,28.00
2022-08-05T13:34:21.105Z,27.80
2022-08-05T13:36:06.600Z,27.70
2022-08-05T13:38:45.233Z,27.60
2022-08-05T13:41:18.815Z,27.70
2022-08-05T13:43:54.915Z,27.70
2022-08-05T13:49:12.827Z,27.50
2022-08-05T13:51:41.739Z,27.50
2022-08-05T13:54:15.083Z,27.60
2022-08-05T13:56:45.381Z,27.60
2022-08-05T13:59:24.357Z,27.80
2022-08-05T14:01:58.313Z,27.80
2022-08-05T14:04:49.483Z,27.70
2022-08-05T14:07:26.205Z,27.60
2022-08-05T14:10:12.159Z,27.50
2022-08-05T14:12:39.609Z,27.60
2022-08-05T14:16:08.517Z,27.70
2022-08-05T14:17:59.650Z,27.80
2022-08-05T14:20:27.950Z,27.90
2022-08-05T14:22:54.641Z,28.00
2022-08-05T14:25:22.528Z,28.00
2022-08-05T14:27:54.552Z,27.90
2022-08-05T14:30:21.463Z,27.90
2022-08-05T14:32:48.986Z,28.00
2022-08-05T14:35:16.310Z,28.00
2022-08-05T14:37:52.180Z,28.30
2022-08-05T14:40:24.363Z,28.30
2022-08-05T14:42:51.784Z,28.30
2022-08-05T14:45:18.952Z,28.30
2022-08-05T14:48:02.820Z,28.40
2022-08-05T14:50:32.839Z,28.50
2022-08-05T14:53:02.874Z,28.40
2022-08-05T14:55:39.283Z,28.20
2022-08-05T14:58:11.321Z,28.20
2022-08-05T15:00:39.479Z,28.30
2022-08-05T15:03:25.754Z,28.40
2022-08-05T15:06:13.164Z,28.40
2022-08-05T15:08:59.724Z,28.40
2022-08-05T15:11:51.998Z,28.40
2022-08-05T15:14:33.348Z,28.50
2022-08-05T15:16:59.483Z,28.60
2022-08-05T15:19:26.370Z,28.60
2022-08-05T15:21:53.335Z,28.50
2022-08-05T15:24:24.682Z,28.30
2022-08-05T15:26:51.508Z,28.20
2022-08-05T15:29:18.190Z,28.20
2022-08-05T15:31:49.730Z,28.10
2022-08-05T15:34:33.154Z,27.90
2022-08-05T15:37:06.365Z,27.70
2022-08-05T15:41:04.793Z,27.60
2022-08-05T15:42:54.747Z,27.50
2022-08-05T15:45:14.979Z,27.50
2022-08-05T15:47:42.854Z,27.50
2022-08-05T15:50:15.149Z,27.50
2022-08-05T15:52:52.831Z,27.50
2022-08-05T15:55:24.473Z,27.60
2022-08-05T15:57:52.296Z,28.00
2022-08-05T16:00:26.258Z,28.30
2022-08-05T16:03:05.926Z,28.50
2022-08-05T16:05:32.684Z,28.40
2022-08-05T16:08:00.135Z,28.50
2022-08-05T16:10:27.122Z,28.60
2022-08-05T16:12:56.024Z,28.60
2022-08-05T16:15:23.544Z,28.70
2022-08-05T16:17:57.529Z,28.80
2022-08-05T16:20:25.348Z,28.70
2022-08-05T16:22:52.086Z,28.60
2022-08-05T16:25:18.751Z,28.60
2022-08-05T16:27:47.270Z,28.40
2022-08-05T16:30:32.321Z,28.30
2022-08-05T16:32:59.566Z,28.30
2022-08-05T16:35:28.389Z,28.20
2022-08-05T16:38:03.039Z,28.20
2022-08-05T16:40:48.103Z,28.10
2022-08-05T16:43:23.867Z,28.20
2022-08-05T16:46:04.033Z,28.20
2022-08-05T16:48:35.745Z,28.10
2022-08-05T16:51:08.784Z,28.00
2022-08-05T16:54:04.365Z,28.00
2022-08-05T16:56:24.575Z,27.90
2022-08-05T16:58:51.443Z,27.80
2022-08-05T17:01:18.739Z,27.50
2022-08-05T17:03:45.918Z,27.20
2022-08-05T17:06:12.712Z,26.50
2022-08-05T17:08:52.942Z,26.20
2022-08-05T17:11:23.509Z,25.80
2022-08-05T17:14:00.543Z,25.30
2022-08-05T17:16:36.453Z,25.00
2022-08-05T17:19:07.080Z,24.70
2022-08-05T17:21:36.257Z,24.50
2022-08-05T17:24:19.667Z,24.10
2022-08-05T17:26:55.863Z,23.80
2022-08-05T17:29:33.313Z,23.60
2022-08-05T17:32:06.769Z,23.20
2022-08-05T17:34:35.332Z,23.00
2022-08-05T17:37:01.994Z,22.80
2022-08-05T17:39:34.193Z,22.50
2022-08-05T17:42:19.889Z,22.40
2022-08-05T17:44:50.135Z,22.20
2022-08-05T17:47:22.492Z,22.10
2022-08-05T17:50:00.581Z,22.00
2022-08-05T17:52:31.968Z,22.00
2022-08-05T17:54:58.841Z,21.90
2022-08-05T17:57:25.653Z,21.60
2022-08-05T18:00:03.739Z,21.40
2022-08-05T18:02:33.398Z,21.30
2022-08-05T18:05:03.732Z,21.20
2022-08-05T18:07:41.562Z,20.90
2022-08-05T18:10:10.328Z,20.80
2022-08-05T18:12:37.631Z,20.60
2022-08-05T18:15:04.950Z,20.40
2022-08-05T18:17:59.492Z,20.30
2022-08-05T18:20:29.601Z,20.20
2022-08-05T18:23:04.851Z,20.20
2022-08-05T18:25:38.737Z,20.20
2022-08-05T18:28:06.617Z,20.20
2022-08-05T18:30:33.770Z,20.10
2022-08-05T18:33:01.447Z,20.10
2022-08-05T18:36:00.981Z,20.00
2022-08-05T18:38:19.422Z,20.10
2022-08-05T18:41:56.160Z,20.10
2022-08-05T18:43:43.177Z,20.20
2022-08-05T18:46:20.053Z,20.10
2022-08-05T18:48:53.487Z,20.10
2022-08-05T18:52:06.355Z,20.00
2022-08-05T18:54:28.570Z,20.00
2022-08-05T18:57:00.945Z,19.90
2022-08-05T18:59:43.838Z,19.90
2022-08-05T19:02:27.524Z,19.80
2022-08-05T19:05:02.228Z,19.80
2022-08-05T19:07:45.852Z,19.80
2022-08-05T19:10:17.211Z,19.80
2022-08-05T19:12:46.286Z,19.80
2022-08-05T19:15:54.639Z,19.80
2022-08-05T19:18:09.385Z,19.90
2022-08-05T19:20:41.570Z,19.80
2022-08-05T19:24:04.520Z,19.80
2022-08-05T19:26:01.890Z,19.80
2022-08-05T19:28:32.776Z,19.70
2022-08-05T19:31:00.996Z,19.80
2022-08-05T19:33:35.858Z,19.90
2022-08-05T19:36:06.882Z,19.90
2022-08-05T19:38:35.602Z,19.70
2022-08-05T19:41:06.870Z,19.70
2022-08-05T19:44:06.256Z,19.70
2022-08-05T19:46:29.460Z,19.60
2022-08-05T19:49:01.050Z,19.60
2022-08-05T19:52:04.498Z,19.60
2022-08-05T19:54:27.150Z,19.50
2022-08-05T19:57:06.495Z,19.50
2022-08-05T20:00:00.846Z,19.40
2022-08-05T20:02:23.254Z,19.40
2022-08-05T20:04:50.173Z,19.40
2022-08-05T20:07:47.243Z,19.30
2022-08-05T20:10:13.143Z,19.30
2022-08-05T20:12:46.042Z,19.40
2022-08-05T20:15:16.005Z,19.30
2022-08-05T20:18:04.302Z,19.20
2022-08-05T20:20:38.146Z,19.20
2022-08-05T20:23:05.417Z,19.20
2022-08-05T20:25:33.897Z,19.10
2022-08-05T20:28:07.803Z,19.10
2022-08-05T20:30:40.534Z,19.10
2022-08-05T20:33:08.788Z,19.10
2022-08-05T20:35:40.694Z,19.10
2022-08-05T20:38:20.000Z,19.00
2022-08-05T20:40:55.519Z,19.10
2022-08-05T20:43:58.003Z,19.10
2022-08-05T20:46:12.418Z,19.00
2022-08-05T20:48:45.432Z,19.00
2022-08-05T20:51:17.792Z,19.00
2022-08-05T20:53:44.444Z,19.00
2022-08-05T20:56:28.720Z,18.90
2022-08-05T20:59:00.098Z,19.00
2022-08-05T21:01:41.315Z,18.90
2022-08-05T21:04:10.785Z,18.90
2022-08-05T21:06:45.577Z,18.90
2022-08-05T21:09:14.211Z,18.80
2022-08-05T21:12:06.807Z,18.80
2022-08-05T21:14:28.188Z,18.80
2022-08-05T21:16:55.224Z,18.70
2022-08-05T21:19:23.412Z,18.70
2022-08-05T21:21:50.855Z,18.70
2022-08-05T21:24:19.589Z,18.60
2022-08-05T21:26:53.495Z,18.50
2022-08-05T21:29:26.636Z,18.50
2022-08-05T21:31:59.163Z,18.50
2022-08-05T21:34:26.381Z,18.70
2022-08-05T21:36:55.268Z,18.50
2022-08-05T21:39:26.521Z,18.40
2022-08-05T21:42:01.565Z,18.50
2022-08-05T21:44:30.160Z,18.40
2022-08-05T21:46:58.410Z,18.30
2022-08-05T21:49:56.861Z,18.30
2022-08-05T21:52:23.054Z,18.20
2022-08-05T21:54:55.502Z,18.20
2022-08-05T21:57:31.510Z,18.20
2022-08-05T22:00:05.521Z,18.20
2022-08-05T22:02:33.789Z,18.20
2022-08-05T22:05:00.654Z,18.20
2022-08-05T22:07:40.186Z,18.10
2022-08-05T22:10:15.709Z,18.00
2022-08-05T22:12:44.741Z,18.00
2022-08-05T22:16:01.748Z,18.00
2022-08-05T22:18:05.181Z,17.60
2022-08-05T22:20:32.114Z,16.50
2022-08-05T22:23:21.524Z,16.10
2022-08-05T22:26:09.850Z,15.80
2022-08-05T22:28:37.631Z,15.70
2022-08-05T22:31:06.007Z,15.80
2022-08-05T22:33:57.518Z,15.80
2022-08-05T22:36:24.069Z,15.80
2022-08-05T22:38:51.643Z,15.60
2022-08-05T22:42:05.355Z,15.60
2022-08-05T22:44:08.609Z,15.60
2022-08-05T22:46:39.808Z,15.50
2022-08-05T22:49:07.918Z,15.40
2022-08-05T22:52:05.130Z,15.50
2022-08-05T22:54:26.558Z,15.20
2022-08-05T22:56:54.618Z,15.30
2022-08-05T22:59:43.833Z,15.40
2022-08-05T23:02:09.454Z,15.60
2022-08-05T23:04:36.467Z,15.60
2022-08-05T23:07:04.530Z,15.60
2022-08-05T23:09:58.376Z,15.60
2022-08-05T23:12:23.894Z,15.60
2022-08-05T23:14:51.176Z,15.70
2022-08-05T23:17:24.517Z,15.70
2022-08-05T23:20:00.645Z,15.60
2022-08-05T23:22:29.031Z,15.50
2022-08-05T23:24:57.500Z,15.60
2022-08-05T23:27:28.913Z,15.70
2022-08-05T23:30:10.721Z,15.80
2022-08-05T23:32:37.676Z,15.80
2022-08-05T23:35:11.943Z,15.70
2022-08-05T23:37:38.648Z,15.60
2022-08-05T23:40:07.821Z,15.70
2022-08-05T23:42:37.405Z,15.70
2022-08-05T23:45:05.430Z,15.70
2022-08-05T23:47:47.962Z,15.80
2022-08-05T23:50:15.139Z,15.90
2022-08-05T23:52:49.852Z,15.90
2022-08-05T23:55:17.912Z,15.90
2022-08-05T23:57:44.843Z,15.90
